createdAt,value
2022-09-26T00:00:53.458Z,10.27
2022-09-26T00:03:19.967Z,10.39
2022-09-26T00:05:46.498Z,10.36
2022-09-26T00:08:12.959Z,10.39
2022-09-26T00:10:39.471Z,10.53
2022-09-26T00:13:05.933Z,10.48
2022-09-26T00:15:32.406Z,10.47
2022-09-26T00:17:58.870Z,10.48
2022-09-26T00:20:25.782Z,10.49
2022-09-26T00:22:52.451Z,10.45
2022-09-26T00:25:19.479Z,10.37
2022-09-26T00:27:46.009Z,10.35
2022-09-26T00:30:12.653Z,10.38
2022-09-26T00:32:39.106Z,10.45
2022-09-26T00:35:06.126Z,10.57
2022-09-26T00:37:32.580Z,10.48
2022-09-26T00:39:59.053Z,10.43
2022-09-26T00:42:25.584Z,10.35
2022-09-26T00:44:56.830Z,10.29
2022-09-26T00:47:23.579Z,10.35
2022-09-26T00:49:54.863Z,10.41
2022-09-26T00:52:30.811Z,10.50
2022-09-26T00:55:00.730Z,10.46
2022-09-26T00:57:35.427Z,10.48
2022-09-26T01:00:07.538Z,10.53
2022-09-26T01:02:34.351Z,10.51
2022-09-26T01:05:02.984Z,10.53
2022-09-26T01:07:30.115Z,10.42
2022-09-26T01:09:57.770Z,10.39
2022-09-26T01:12:24.713Z,10.34
2022-09-26T01:14:53.642Z,10.49
2022-09-26T01:17:22.726Z,10.46
2022-09-26T01:20:02.646Z,10.43
2022-09-26T01:23:07.473Z,10.41
2022-09-26T01:26:04.190Z,10.48
2022-09-26T01:28:55.670Z,10.55
2022-09-26T01:31:42.287Z,10.48
2022-09-26T01:34:26.391Z,10.52
2022-09-26T01:37:10.804Z,10.51
2022-09-26T01:39:54.386Z,10.46
2022-09-26T01:42:36.228Z,10.43
2022-09-26T01:45:15.646Z,10.37
2022-09-26T01:47:42.082Z,10.28
2022-09-26T01:50:27.721Z,10.20
2022-09-26T01:53:06.396Z,10.03
2022-09-26T01:55:45.138Z,9.95
2022-09-26T01:58:20.809Z,9.79
2022-09-26T02:00:49.754Z,9.76
2022-09-26T02:03:21.661Z,9.76
2022-09-26T02:05:52.807Z,9.78
2022-09-26T02:08:36.171Z,9.92
2022-09-26T02:11:17.274Z,9.98
2022-09-26T02:13:56.764Z,10.04
2022-09-26T02:16:39.541Z,10.06
2022-09-26T02:19:27.909Z,10.16
2022-09-26T02:21:55.615Z,10.20
2022-09-26T02:24:23.231Z,10.20
2022-09-26T02:26:50.989Z,10.21
2022-09-26T02:29:17.682Z,10.24
2022-09-26T02:31:51.321Z,10.28
2022-09-26T02:34:17.850Z,10.27
2022-09-26T02:36:44.445Z,10.22
2022-09-26T02:39:11.151Z,10.28
2022-09-26T02:41:51.939Z,10.26
2022-09-26T02:44:36.054Z,10.30
2022-09-26T02:47:27.864Z,10.34
2022-09-26T02:50:04.010Z,10.36
2022-09-26T02:52:36.785Z,10.38
2022-09-26T02:55:21.619Z,10.36
2022-09-26T02:58:18.622Z,10.28
2022-09-26T03:01:13.511Z,10.32
2022-09-26T03:03:43.154Z,10.36
2022-09-26T03:06:13.687Z,10.35
2022-09-26T03:08:44.374Z,10.28
2022-09-26T03:11:15.982Z,10.30
2022-09-26T03:13:45.279Z,10.28
2022-09-26T03:16:14.079Z,10.37
2022-09-26T03:18:50.949Z,10.33
2022-09-26T03:21:17.966Z,10.42
2022-09-26T03:23:45.180Z,10.41
2022-09-26T03:26:15.929Z,10.42
2022-09-26T03:28:42.464Z,10.38
2022-09-26T03:31:08.961Z,10.47
2022-09-26T03:33:35.553Z,10.37
2022-09-26T03:36:06.642Z,10.35
2022-09-26T03:38:33.147Z,10.28
2022-09-26T03:41:00.308Z,10.26
2022-09-26T03:43:26.806Z,10.24
2022-09-26T03:45:53.334Z,10.26
2022-09-26T03:48:21.368Z,10.30
2022-09-26T03:50:47.923Z,10.31
2022-09-26T03:53:14.538Z,10.28
2022-09-26T03:55:41.032Z,10.28
2022-09-26T03:58:07.492Z,10.28
2022-09-26T04:00:33.997Z,10.23
2022-09-26T04:03:02.942Z,10.33
2022-09-26T04:05:29.780Z,10.31
2022-09-26T04:07:56.289Z,10.30
2022-09-26T04:10:24.226Z,10.26
2022-09-26T04:12:50.742Z,10.31
2022-09-26T04:15:17.311Z,10.37
2022-09-26T04:17:43.797Z,10.29
2022-09-26T04:20:10.299Z,10.31
2022-09-26T04:22:37.180Z,10.45
2022-09-26T04:25:03.937Z,10.36
2022-09-26T04:27:30.592Z,10.49
2022-09-26T04:29:59.710Z,10.44
2022-09-26T04:32:28.548Z,10.44
2022-09-26T04:34:55.066Z,10.43
2022-09-26T04:37:21.521Z,10.44
2022-09-26T04:39:48.421Z,10.39
2022-09-26T04:42:14.981Z,10.38
2022-09-26T04:44:41.494Z,10.42
2022-09-26T04:47:08.305Z,10.39
2022-09-26T04:49:34.909Z,10.46
2022-09-26T04:52:01.613Z,10.43
2022-09-26T04:54:28.119Z,10.38
2022-09-26T04:56:54.613Z,10.40
2022-09-26T04:59:21.101Z,10.42
2022-09-26T05:01:48.117Z,10.34
2022-09-26T05:04:14.688Z,10.34
2022-09-26T05:06:41.155Z,10.33
2022-09-26T05:09:07.645Z,10.35
2022-09-26T05:11:34.170Z,10.37
2022-09-26T05:14:01.962Z,10.37
2022-09-26T05:16:29.981Z,10.37
2022-09-26T05:18:56.946Z,10.38
2022-09-26T05:21:23.470Z,10.42
2022-09-26T05:24:08.655Z,10.45
2022-09-26T05:26:42.643Z,10.45
2022-09-26T05:29:09.678Z,10.61
2022-09-26T05:31:40.065Z,10.61
2022-09-26T05:34:13.068Z,10.65
2022-09-26T05:36:42.730Z,11.40
2022-09-26T05:39:29.522Z,11.39
2022-09-26T05:41:57.257Z,11.04
2022-09-26T05:44:23.734Z,10.97
2022-09-26T05:46:51.925Z,10.86
2022-09-26T05:49:18.511Z,10.80
2022-09-26T05:51:45.263Z,10.80
2022-09-26T05:54:11.921Z,10.73
2022-09-26T05:56:38.418Z,10.74
2022-09-26T05:59:05.717Z,10.67
2022-09-26T06:01:33.861Z,10.72
2022-09-26T06:04:02.742Z,10.79
2022-09-26T06:06:30.005Z,10.79
2022-09-26T06:08:56.522Z,10.80
2022-09-26T06:11:24.994Z,10.82
2022-09-26T06:13:51.871Z,10.78
2022-09-26T06:16:20.763Z,10.89
2022-09-26T06:18:50.585Z,10.94
2022-09-26T06:21:18.705Z,11.13
2022-09-26T06:23:45.967Z,11.17
2022-09-26T06:26:21.106Z,11.43
2022-09-26T06:28:49.929Z,11.38
2022-09-26T06:31:18.818Z,11.48
2022-09-26T06:33:50.335Z,11.54
2022-09-26T06:36:16.819Z,11.59
2022-09-26T06:38:43.282Z,11.68
2022-09-26T06:41:09.746Z,11.83
2022-09-26T06:43:36.234Z,11.94
2022-09-26T06:46:02.807Z,12.10
2022-09-26T06:48:29.312Z,12.23
2022-09-26T06:51:00.453Z,12.27
2022-09-26T06:53:27.630Z,12.18
2022-09-26T06:55:54.156Z,12.17
2022-09-26T06:58:20.942Z,12.11
2022-09-26T07:00:48.249Z,12.12
2022-09-26T07:03:15.504Z,11.94
2022-09-26T07:05:43.771Z,11.77
2022-09-26T07:08:10.251Z,11.86
2022-09-26T07:10:38.436Z,11.93
2022-09-26T07:13:07.458Z,11.77
2022-09-26T07:15:36.091Z,11.81
2022-09-26T07:18:04.390Z,11.69
2022-09-26T07:20:34.204Z,11.61
2022-09-26T07:23:05.596Z,11.57
2022-09-26T07:25:33.380Z,11.56
2022-09-26T07:28:01.186Z,11.56
2022-09-26T07:30:28.276Z,11.63
2022-09-26T07:33:05.261Z,11.73
2022-09-26T07:35:33.304Z,11.72
2022-09-26T07:38:00.120Z,11.67
2022-09-26T07:40:27.181Z,11.72
2022-09-26T07:43:15.299Z,11.76
2022-09-26T07:45:58.882Z,11.89
2022-09-26T07:48:43.783Z,12.05
2022-09-26T07:51:13.313Z,12.10
2022-09-26T07:53:41.339Z,11.95
2022-09-26T07:56:12.149Z,11.81
2022-09-26T07:58:43.211Z,11.93
2022-09-26T08:01:14.636Z,11.88
2022-09-26T08:03:42.678Z,11.87
2022-09-26T08:06:09.967Z,11.94
2022-09-26T08:08:36.959Z,11.90
2022-09-26T08:11:04.609Z,12.10
2022-09-26T08:13:32.632Z,12.28
2022-09-26T08:16:06.098Z,12.47
2022-09-26T08:18:33.547Z,12.71
2022-09-26T08:21:02.884Z,12.71
2022-09-26T08:23:29.445Z,12.99
2022-09-26T08:25:55.939Z,12.97
2022-09-26T08:28:22.500Z,13.17
2022-09-26T08:30:48.993Z,13.36
2022-09-26T08:33:16.232Z,13.57
2022-09-26T08:35:42.790Z,13.69
2022-09-26T08:38:09.352Z,14.05
2022-09-26T08:40:51.842Z,14.15
2022-09-26T08:43:45.352Z,14.60
2022-09-26T08:47:01.315Z,14.91
2022-09-26T08:49:39.119Z,14.38
2022-09-26T08:52:25.797Z,14.46
2022-09-26T08:54:54.690Z,14.39
2022-09-26T08:57:24.201Z,14.46
2022-09-26T08:59:53.600Z,14.89
2022-09-26T09:02:30.213Z,15.04
2022-09-26T09:05:05.961Z,15.37
2022-09-26T09:07:32.483Z,15.30
2022-09-26T09:10:03.152Z,15.98
2022-09-26T09:13:19.592Z,16.43
2022-09-26T09:16:14.895Z,17.28
2022-09-26T09:19:09.152Z,17.56
2022-09-26T09:22:10.532Z,17.22
2022-09-26T09:24:59.567Z,16.92
2022-09-26T09:27:54.117Z,16.07
2022-09-26T09:30:24.378Z,16.41
2022-09-26T09:32:56.599Z,17.57
2022-09-26T09:35:51.964Z,19.99
2022-09-26T09:38:28.947Z,21.22
2022-09-26T09:41:01.776Z,22.50
2022-09-26T09:43:51.839Z,22.08
2022-09-26T09:46:28.648Z,23.19
2022-09-26T09:49:00.713Z,23.25
2022-09-26T09:51:39.609Z,23.00
2022-09-26T09:54:25.514Z,24.51
2022-09-26T09:57:20.956Z,24.05
2022-09-26T09:59:53.389Z,23.25
2022-09-26T10:02:47.052Z,21.68
2022-09-26T10:05:17.055Z,19.12
2022-09-26T10:07:45.102Z,17.50
2022-09-26T10:10:21.790Z,16.91
2022-09-26T10:12:51.363Z,16.01
2022-09-26T10:15:27.194Z,15.61
2022-09-26T10:18:30.565Z,15.31
2022-09-26T10:21:06.675Z,14.94
2022-09-26T10:23:39.564Z,14.75
2022-09-26T10:26:09.446Z,14.55
2022-09-26T10:28:43.539Z,14.46
2022-09-26T10:31:11.894Z,14.29
2022-09-26T10:33:45.040Z,14.28
2022-09-26T10:36:20.903Z,14.21
2022-09-26T10:39:16.706Z,14.08
2022-09-26T10:41:45.189Z,14.15
2022-09-26T10:44:42.828Z,14.04
2022-09-26T10:47:15.670Z,14.27
2022-09-26T10:49:51.989Z,14.05
2022-09-26T10:52:23.787Z,14.31
2022-09-26T10:55:00.133Z,14.72
2022-09-26T10:57:35.312Z,15.53
2022-09-26T11:00:06.286Z,17.02
2022-09-26T11:02:33.347Z,18.72
2022-09-26T11:05:22.117Z,19.65
2022-09-26T11:07:52.249Z,21.88
2022-09-26T11:10:32.480Z,22.42
2022-09-26T11:13:16.115Z,24.08
2022-09-26T11:16:08.757Z,26.01
2022-09-26T11:18:50.344Z,25.89
2022-09-26T11:21:28.801Z,23.75
2022-09-26T11:24:14.765Z,22.29
2022-09-26T11:27:06.236Z,21.09
2022-09-26T11:38:47.778Z,18.99
2022-09-26T11:41:37.240Z,18.58
2022-09-26T11:44:43.090Z,18.41
2022-09-26T11:47:36.804Z,17.98
2022-09-26T11:50:23.640Z,17.93
2022-09-26T11:53:17.027Z,18.03
2022-09-26T11:56:06.798Z,17.86
2022-09-26T11:58:51.866Z,17.40
2022-09-26T12:01:24.306Z,17.44
2022-09-26T12:04:12.121Z,17.00
2022-09-26T12:06:56.319Z,17.15
2022-09-26T12:09:41.198Z,16.89
2022-09-26T12:12:28.359Z,17.62
2022-09-26T12:14:57.780Z,18.05
2022-09-26T12:17:41.767Z,18.05
2022-09-26T12:20:14.387Z,17.84
2022-09-26T12:22:50.103Z,17.28
2022-09-26T12:25:22.794Z,17.30
2022-09-26T12:28:20.896Z,17.09
2022-09-26T12:31:00.883Z,17.11
2022-09-26T12:33:51.996Z,17.49
2022-09-26T12:36:40.389Z,17.66
2022-09-26T12:39:09.907Z,17.63
2022-09-26T12:41:51.769Z,17.54
2022-09-26T12:44:39.916Z,18.64
2022-09-26T12:47:15.512Z,18.34
2022-09-26T12:49:59.381Z,18.23
2022-09-26T12:52:40.851Z,17.84
2022-09-26T12:55:29.620Z,17.44
2022-09-26T12:58:02.086Z,16.91
2022-09-26T13:00:40.621Z,16.13
2022-09-26T13:03:32.835Z,14.93
2022-09-26T13:06:19.575Z,14.38
2022-09-26T13:08:54.324Z,13.55
2022-09-26T13:11:55.155Z,13.33
2022-09-26T13:14:38.490Z,13.26
2022-09-26T13:17:20.375Z,13.00
2022-09-26T13:19:52.988Z,13.12
2022-09-26T13:22:44.523Z,12.94
2022-09-26T13:25:10.987Z,12.83
2022-09-26T13:28:16.518Z,12.66
2022-09-26T13:30:54.992Z,12.52
2022-09-26T13:33:48.839Z,12.59
2022-09-26T13:36:17.891Z,12.71
2022-09-26T13:38:52.984Z,12.99
2022-09-26T13:41:43.398Z,13.17
2022-09-26T13:44:18.894Z,13.39
2022-09-26T13:47:19.570Z,13.77
2022-09-26T13:49:57.161Z,13.74
2022-09-26T13:52:52.884Z,14.22
2022-09-26T13:55:21.808Z,14.07
2022-09-26T13:58:04.031Z,14.22
2022-09-26T14:00:30.605Z,14.68
2022-09-26T14:03:09.448Z,15.44
2022-09-26T14:05:45.748Z,16.93
2022-09-26T14:08:42.846Z,17.54
2022-09-26T14:11:51.556Z,17.26
2022-09-26T14:14:24.117Z,17.38
2022-09-26T14:16:54.379Z,17.33
2022-09-26T14:19:32.947Z,17.26
2022-09-26T14:22:05.205Z,16.71
2022-09-26T14:24:37.972Z,16.33
2022-09-26T14:27:10.240Z,15.69
2022-09-26T14:29:39.605Z,15.27
2022-09-26T14:32:10.350Z,15.27
2022-09-26T14:34:44.057Z,15.12
2022-09-26T14:37:24.641Z,15.44
2022-09-26T14:39:52.869Z,15.58
2022-09-26T14:42:38.329Z,15.68
2022-09-26T14:45:07.807Z,15.58
2022-09-26T14:47:46.105Z,15.57
2022-09-26T14:50:20.341Z,15.39
2022-09-26T14:52:55.722Z,15.45
2022-09-26T14:55:23.179Z,15.60
2022-09-26T14:57:50.032Z,15.46
2022-09-26T15:00:36.901Z,15.42
2022-09-26T15:03:14.666Z,15.58
2022-09-26T15:05:42.616Z,15.14
2022-09-26T15:08:27.751Z,15.06
2022-09-26T15:10:57.383Z,15.41
2022-09-26T15:13:29.758Z,15.00
2022-09-26T15:16:14.924Z,15.17
2022-09-26T15:18:44.350Z,15.18
2022-09-26T15:21:33.293Z,15.00
2022-09-26T15:24:02.854Z,15.15
2022-09-26T15:26:35.338Z,15.14
2022-09-26T15:29:06.430Z,15.02
2022-09-26T15:31:43.709Z,15.09
2022-09-26T15:34:19.135Z,14.83
2022-09-26T15:36:49.089Z,14.64
2022-09-26T15:39:30.835Z,14.50
2022-09-26T15:42:35.908Z,14.72
2022-09-26T15:45:02.458Z,14.51
2022-09-26T15:47:28.846Z,14.48
2022-09-26T15:50:02.530Z,13.99
2022-09-26T15:52:30.000Z,13.85
2022-09-26T15:54:56.495Z,13.79
2022-09-26T15:57:23.008Z,13.75
2022-09-26T15:59:49.416Z,13.80
2022-09-26T16:02:23.001Z,13.73
2022-09-26T16:04:51.068Z,13.53
2022-09-26T16:07:25.023Z,13.47
2022-09-26T16:09:52.091Z,13.48
2022-09-26T16:12:20.881Z,13.34
2022-09-26T16:15:17.010Z,13.35
2022-09-26T16:17:49.922Z,13.34
2022-09-26T16:20:16.301Z,13.39
2022-09-26T16:22:45.834Z,13.23
2022-09-26T16:25:22.904Z,13.04
2022-09-26T16:28:00.668Z,12.95
2022-09-26T16:30:30.212Z,12.90
2022-09-26T16:33:12.750Z,12.71
2022-09-26T16:35:46.549Z,12.65
2022-09-26T16:38:13.016Z,12.46
2022-09-26T16:40:39.465Z,12.40
2022-09-26T16:43:12.698Z,12.21
2022-09-26T16:45:46.106Z,12.16
2022-09-26T16:48:31.045Z,12.18
2022-09-26T16:51:15.695Z,11.96
2022-09-26T16:53:46.084Z,11.86
2022-09-26T16:56:14.319Z,11.74
2022-09-26T16:58:43.178Z,11.59
2022-09-26T17:01:29.415Z,11.50
2022-09-26T17:03:56.980Z,11.56
2022-09-26T17:06:23.361Z,11.53
2022-09-26T17:08:49.924Z,11.58
2022-09-26T17:11:16.512Z,11.61
2022-09-26T17:13:43.880Z,11.62
2022-09-26T17:16:10.709Z,11.66
2022-09-26T17:18:37.417Z,11.67
2022-09-26T17:21:03.997Z,11.58
2022-09-26T17:23:41.561Z,11.51
2022-09-26T17:26:12.223Z,11.44
2022-09-26T17:28:44.586Z,11.33
2022-09-26T17:31:14.687Z,11.32
2022-09-26T17:33:41.708Z,11.23
2022-09-26T17:36:10.950Z,11.27
2022-09-26T17:38:41.206Z,11.20
2022-09-26T17:41:09.479Z,11.06
2022-09-26T17:43:35.943Z,11.02
2022-09-26T17:46:02.754Z,10.89
2022-09-26T17:48:31.410Z,10.79
2022-09-26T17:51:00.540Z,10.75
2022-09-26T17:53:32.714Z,10.72
2022-09-26T17:55:59.293Z,10.72
2022-09-26T17:58:26.868Z,10.77
2022-09-26T18:00:53.329Z,10.72
2022-09-26T18:03:24.250Z,10.71
2022-09-26T18:05:50.901Z,10.68
2022-09-26T18:08:30.996Z,10.56
2022-09-26T18:10:58.969Z,10.47
2022-09-26T18:13:27.905Z,10.42
2022-09-26T18:15:56.073Z,10.39
2022-09-26T18:18:24.144Z,10.27
2022-09-26T18:20:52.497Z,10.19
2022-09-26T18:23:22.630Z,10.21
2022-09-26T18:25:50.530Z,10.14
2022-09-26T18:28:21.078Z,10.06
2022-09-26T18:30:49.457Z,10.01
2022-09-26T18:33:17.698Z,10.18
2022-09-26T18:35:45.544Z,10.02
2022-09-26T18:38:15.288Z,9.95
2022-09-26T18:40:47.303Z,9.92
2022-09-26T18:43:17.181Z,9.88
2022-09-26T18:45:43.636Z,9.82
2022-09-26T18:48:21.505Z,9.80
2022-09-26T18:50:48.056Z,9.79
2022-09-26T18:53:16.364Z,9.74
2022-09-26T18:56:01.704Z,9.77
2022-09-26T18:58:32.178Z,9.82
2022-09-26T19:01:11.953Z,9.86
2022-09-26T19:03:42.250Z,9.81
2022-09-26T19:06:11.748Z,9.90
2022-09-26T19:08:39.537Z,9.89
2022-09-26T19:11:12.853Z,9.89
2022-09-26T19:13:40.021Z,9.91
2022-09-26T19:16:07.370Z,9.87
2022-09-26T19:18:33.888Z,9.87
2022-09-26T19:21:02.013Z,9.90
2022-09-26T19:23:31.300Z,9.96
2022-09-26T19:25:57.864Z,10.00
2022-09-26T19:28:26.679Z,10.10
2022-09-26T19:30:53.231Z,10.15
2022-09-26T19:33:19.737Z,10.19
2022-09-26T19:35:47.173Z,10.16
2022-09-26T19:38:22.089Z,10.21
2022-09-26T19:40:49.276Z,10.27
2022-09-26T19:43:16.633Z,10.35
2022-09-26T19:45:43.531Z,10.40
2022-09-26T19:48:12.605Z,10.35
2022-09-26T19:50:39.831Z,10.41
2022-09-26T19:53:12.541Z,10.45
2022-09-26T19:55:39.493Z,10.44
2022-09-26T19:58:11.941Z,10.45
2022-09-26T20:00:41.611Z,10.52
2022-09-26T20:03:14.185Z,10.48
2022-09-26T20:05:40.802Z,10.53
2022-09-26T20:08:09.365Z,10.53
2022-09-26T20:10:36.059Z,10.59
2022-09-26T20:13:02.471Z,10.60
2022-09-26T20:15:31.539Z,10.56
2022-09-26T20:18:00.203Z,10.58
2022-09-26T20:20:27.651Z,10.55
2022-09-26T20:22:55.367Z,10.51
2022-09-26T20:25:27.177Z,10.53
2022-09-26T20:27:53.914Z,10.52
2022-09-26T20:30:39.080Z,10.58
2022-09-26T20:33:06.196Z,10.48
2022-09-26T20:35:36.747Z,10.49
2022-09-26T20:38:05.700Z,10.47
2022-09-26T20:40:32.390Z,10.51
2022-09-26T20:43:02.125Z,10.46
2022-09-26T20:45:30.818Z,10.49
2022-09-26T20:47:59.319Z,10.46
2022-09-26T20:50:29.469Z,10.37
2022-09-26T20:52:58.269Z,10.49
2022-09-26T20:55:24.661Z,10.44
2022-09-26T20:57:51.448Z,10.43
2022-09-26T21:00:19.541Z,10.41
2022-09-26T21:02:47.747Z,10.37
2022-09-26T21:05:15.745Z,10.37
2022-09-26T21:07:42.345Z,10.33
2022-09-26T21:10:22.644Z,10.36
2022-09-26T21:12:49.207Z,10.34
2022-09-26T21:15:15.700Z,10.38
2022-09-26T21:17:42.476Z,10.50
2022-09-26T21:20:16.825Z,10.51
2022-09-26T21:22:43.401Z,10.61
2022-09-26T21:25:14.333Z,10.74
2022-09-26T21:27:40.705Z,10.92
2022-09-26T21:30:12.048Z,11.02
2022-09-26T21:32:41.177Z,11.04
2022-09-26T21:35:07.761Z,11.06
2022-09-26T21:37:34.453Z,11.05
2022-09-26T21:40:01.259Z,10.98
2022-09-26T21:42:27.648Z,10.85
2022-09-26T21:44:58.472Z,10.91
2022-09-26T21:47:24.854Z,10.88
2022-09-26T21:49:51.588Z,10.82
2022-09-26T21:52:23.015Z,10.72
2022-09-26T21:54:50.425Z,10.64
2022-09-26T21:57:23.002Z,10.78
2022-09-26T21:59:50.620Z,10.71
2022-09-26T22:02:17.357Z,10.81
2022-09-26T22:04:43.820Z,10.82
2022-09-26T22:07:10.295Z,10.75
2022-09-26T22:09:36.683Z,10.68
2022-09-26T22:12:03.155Z,10.71
2022-09-26T22:14:29.663Z,10.70
2022-09-26T22:16:56.191Z,10.64
2022-09-26T22:19:23.661Z,10.62
2022-09-26T22:21:51.142Z,10.56
2022-09-26T22:24:17.609Z,10.54
2022-09-26T22:26:45.080Z,10.52
2022-09-26T22:29:11.938Z,10.51
2022-09-26T22:31:38.420Z,10.43
2022-09-26T22:34:04.923Z,10.37
2022-09-26T22:36:31.748Z,10.36
2022-09-26T22:38:58.280Z,10.25
2022-09-26T22:41:24.673Z,10.16
2022-09-26T22:43:52.102Z,10.09
2022-09-26T22:46:18.755Z,10.07
2022-09-26T22:48:46.329Z,10.09
2022-09-26T22:51:14.103Z,10.22
2022-09-26T22:53:41.039Z,10.35
2022-09-26T22:56:09.669Z,10.29
2022-09-26T22:58:41.444Z,10.29
2022-09-26T23:01:09.534Z,10.27
2022-09-26T23:03:36.641Z,10.34
2022-09-26T23:06:03.603Z,10.37
2022-09-26T23:08:29.993Z,10.37
2022-09-26T23:10:56.644Z,10.31
2022-09-26T23:13:24.947Z,10.28
2022-09-26T23:15:51.476Z,10.28
2022-09-26T23:18:18.105Z,10.28
2022-09-26T23:20:44.750Z,10.23
2022-09-26T23:23:12.453Z,10.15
2022-09-26T23:25:46.233Z,10.09
2022-09-26T23:28:12.638Z,10.29
2022-09-26T23:30:39.301Z,10.17
2022-09-26T23:33:05.921Z,10.08
2022-09-26T23:35:32.307Z,9.99
2022-09-26T23:37:58.792Z,9.98
2022-09-26T23:40:25.294Z,9.92
2022-09-26T23:42:51.813Z,9.87
2022-09-26T23:45:18.207Z,9.82
2022-09-26T23:47:44.604Z,9.82
2022-09-26T23:50:10.979Z,9.83
2022-09-26T23:52:37.379Z,9.81
2022-09-26T23:55:04.425Z,9.81
2022-09-26T23:57:30.848Z,9.82
2022-09-26T23:59:57.318Z,9.82
